Time;durP1;ratioP1;P1;durP2;ratioP2;P2;SDS_P1;SDS_P2;PMS_P1;PMS_P2;Temp;Humidity;BMP_temperature;BMP_pressure;BME280_temperature;BME280_humidity;BME280_pressure;Samples;Min_cycle;Max_cycle;Signal;HPM_P1;HPM_P2
2021/03/04 00:00:52;;;;;;;17.17;8.96;;;;;;;0.96;72.92;99657.19;344699;115;1962014;-71
2021/03/04 00:01:58;;;;;;;15.16;8.37;;;;;;;1.02;72.77;99661.92;317131;115;2498969;-71
2021/03/04 00:03:13;;;;;;;16.80;9.56;;;;;;;1.17;72.28;99653.48;343751;117;1961908;-71
2021/03/04 00:04:18;;;;;;;16.86;8.76;;;;;;;1.13;72.31;99655.58;347883;115;1961981;-71
2021/03/04 00:05:25;;;;;;;14.07;7.35;;;;;;;1.18;72.01;99648.00;340821;117;1961987;-70
2021/03/04 00:06:31;;;;;;;15.16;8.67;;;;;;;1.28;71.62;99639.98;346530;117;1961953;-72
2021/03/04 00:07:38;;;;;;;15.67;9.06;;;;;;;1.22;71.70;99649.40;297441;117;2743044;-71
2021/03/04 00:08:43;;;;;;;15.31;8.24;;;;;;;1.27;71.40;99647.14;339619;117;1962902;-70
2021/03/04 00:09:48;;;;;;;20.15;9.74;;;;;;;1.20;71.75;99642.55;344464;115;1964006;-71
2021/03/04 00:10:56;;;;;;;15.59;8.37;;;;;;;1.17;71.80;99632.20;343749;117;1961916;-71
2021/03/04 00:12:01;;;;;;;15.68;8.68;;;;;;;1.22;71.57;99641.42;324425;115;1962021;-70
2021/03/04 00:13:07;;;;;;;18.38;9.33;;;;;;;1.21;71.56;99625.59;333330;118;1962067;-70
2021/03/04 00:14:12;;;;;;;17.27;9.65;;;;;;;1.24;71.48;99631.44;342292;115;1961942;-71
2021/03/04 00:15:21;;;;;;;16.26;9.17;;;;;;;1.27;71.27;99617.87;342159;115;1962003;-70
2021/03/04 00:16:28;;;;;;;17.28;10.01;;;;;;;1.26;71.28;99629.48;343418;115;1961943;-70
2021/03/04 00:17:34;;;;;;;17.71;9.37;;;;;;;1.21;71.46;99622.92;342316;115;1962008;-69
2021/03/04 00:18:40;;;;;;;18.11;9.41;;;;;;;1.14;71.86;99609.39;292108;117;2238941;-71
2021/03/04 00:19:45;;;;;;;17.38;9.53;;;;;;;1.14;71.88;99621.83;312973;119;1962018;-71
2021/03/04 00:20:52;;;;;;;16.88;9.29;;;;;;;1.15;71.67;99619.03;340377;117;1961966;-72
2021/03/04 00:21:58;;;;;;;17.16;9.71;;;;;;;1.16;71.77;99625.19;342759;115;1961968;-70
2021/03/04 00:23:04;;;;;;;18.24;9.51;;;;;;;1.12;71.97;99626.48;303861;115;2730905;-70
2021/03/04 00:24:09;;;;;;;17.25;9.82;;;;;;;1.11;71.81;99607.00;329392;117;1964997;-70
2021/03/04 00:25:16;;;;;;;17.20;8.73;;;;;;;1.10;71.79;99621.30;341267;115;1963954;-70
2021/03/04 00:26:22;;;;;;;17.88;9.03;;;;;;;1.12;71.87;99619.33;343714;115;1962069;-71
2021/03/04 00:27:28;;;;;;;18.73;10.31;;;;;;;1.13;71.80;99604.20;306776;115;2696088;-71
2021/03/04 00:28:33;;;;;;;20.75;10.44;;;;;;;1.08;72.12;99618.77;317420;115;1962008;-70
2021/03/04 00:29:39;;;;;;;19.72;10.52;;;;;;;1.08;72.04;99616.11;343160;115;1963042;-71
2021/03/04 00:30:46;;;;;;;19.97;9.92;;;;;;;1.05;72.46;99612.91;344041;115;1962973;-70
2021/03/04 00:31:53;;;;;;;22.24;12.39;;;;;;;0.99;72.87;99616.16;316817;115;2492911;-71
2021/03/04 00:32:58;;;;;;;22.04;11.21;;;;;;;0.98;73.14;99611.81;343291;115;1962744;-70
2021/03/04 00:34:04;;;;;;;19.51;10.54;;;;;;;0.98;72.94;99610.02;349959;110;1961077;-71
2021/03/04 00:35:10;;;;;;;20.87;10.56;;;;;;;1.01;72.73;99595.59;352450;112;1961982;-72
2021/03/04 00:36:17;;;;;;;18.49;9.44;;;;;;;1.01;72.96;99607.05;337282;111;1962138;-72
2021/03/04 00:37:22;;;;;;;22.70;10.41;;;;;;;0.96;73.35;99595.19;357085;111;1961886;-71
2021/03/04 00:38:27;;;;;;;19.98;10.38;;;;;;;0.91;73.69;99594.78;354072;111;1962151;-71
2021/03/04 00:39:33;;;;;;;21.28;9.42;;;;;;;0.93;73.62;99584.81;349812;113;1962969;-71
2021/03/04 00:40:41;;;;;;;22.46;10.93;;;;;;;0.95;73.77;99589.00;325179;113;2945985;-71
2021/03/04 00:41:46;;;;;;;19.59;9.92;;;;;;;0.96;73.76;99582.72;316467;113;1961969;-71
2021/03/04 00:42:57;;;;;;;19.82;10.54;;;;;;;0.98;73.55;99580.76;334455;117;1961973;-70
2021/03/04 00:44:04;;;;;;;19.68;10.84;;;;;;;0.97;73.50;99584.38;362200;110;1961945;-71
2021/03/04 00:45:16;;;;;;;20.26;11.05;;;;;;;0.97;73.60;99579.06;339505;110;2345009;-71
2021/03/04 00:46:25;;;;;;;19.89;11.20;;;;;;;0.97;73.53;99583.55;317517;110;2761991;-71
2021/03/04 00:47:31;;;;;;;20.47;10.51;;;;;;;1.00;73.45;99578.77;361194;110;1962021;-72
2021/03/04 00:48:36;;;;;;;23.52;11.43;;;;;;;0.99;73.62;99577.10;363056;110;1961983;-70
2021/03/04 00:49:41;;;;;;;21.19;11.38;;;;;;;0.97;73.70;99579.06;360741;112;1962009;-70
2021/03/04 00:50:48;;;;;;;22.56;12.57;;;;;;;1.11;73.16;99569.75;361148;110;1961034;-71
2021/03/04 00:51:54;;;;;;;21.62;10.71;;;;;;;1.08;73.52;99570.05;337143;111;2392938;-70
2021/03/04 00:52:59;;;;;;;22.91;12.51;;;;;;;1.06;73.65;99577.37;334599;110;1961918;-72
2021/03/04 00:54:07;;;;;;;19.44;10.56;;;;;;;0.93;73.92;99550.23;352613;112;1963032;-72
2021/03/04 00:55:13;;;;;;;24.34;10.47;;;;;;;0.99;74.08;99554.99;359083;107;1961997;-71
2021/03/04 00:56:20;;;;;;;19.04;10.62;;;;;;;1.03;73.80;99569.66;355172;112;1963064;-72
2021/03/04 00:57:25;;;;;;;22.43;10.96;;;;;;;1.06;73.75;99564.90;346905;112;1962208;-71
2021/03/04 00:58:30;;;;;;;23.38;10.76;;;;;;;1.09;73.61;99569.09;335754;118;1961960;-71
2021/03/04 00:59:36;;;;;;;22.41;10.54;;;;;;;1.01;74.04;99563.67;340309;118;1962957;-72
2021/03/04 01:00:42;;;;;;;20.01;10.62;;;;;;;1.05;73.91;99554.39;311323;118;2514016;-71
2021/03/04 01:01:48;;;;;;;22.02;11.36;;;;;;;0.94;74.60;99549.27;333597;115;1961914;-71
2021/03/04 01:02:54;;;;;;;19.78;10.58;;;;;;;0.99;74.38;99545.19;349086;114;1961042;-71
2021/03/04 01:04:01;;;;;;;22.85;11.29;;;;;;;1.01;74.28;99532.58;348422;115;1965058;-71
2021/03/04 01:05:07;;;;;;;21.21;10.70;;;;;;;0.87;74.50;99519.75;333402;115;2228028;-71
2021/03/04 01:06:14;;;;;;;20.82;11.17;;;;;;;1.09;74.13;99547.80;351300;115;1961893;-71
2021/03/04 01:07:20;;;;;;;23.48;10.72;;;;;;;1.13;73.93;99543.84;341145;118;1962000;-71
2021/03/04 01:08:26;;;;;;;23.42;11.69;;;;;;;1.14;74.07;99534.03;312100;116;2904932;-72
2021/03/04 01:09:31;;;;;;;19.36;10.95;;;;;;;1.14;74.07;99534.03;343039;114;1961900;-72
2021/03/04 01:10:40;;;;;;;24.09;10.77;;;;;;;1.16;73.87;99538.22;350245;115;1961963;-72
2021/03/04 01:11:45;;;;;;;24.61;12.03;;;;;;;1.15;73.81;99523.26;300087;115;2139387;-71
2021/03/04 01:12:50;;;;;;;22.65;10.55;;;;;;;1.15;73.87;99523.26;324003;114;1962008;-71
2021/03/04 01:13:56;;;;;;;26.54;10.37;;;;;;;1.08;74.31;99525.66;346048;115;1964005;-72
2021/03/04 01:15:02;;;;;;;22.88;10.49;;;;;;;1.18;73.92;99522.13;347418;115;1962031;-71
2021/03/04 01:16:08;;;;;;;23.59;10.68;;;;;;;1.15;74.11;99507.30;345876;116;1964916;-71
2021/03/04 01:17:16;;;;;;;23.94;10.76;;;;;;;1.11;74.42;99511.23;341406;115;1961997;-72
2021/03/04 01:18:21;;;;;;;22.42;11.26;;;;;;;1.12;74.21;99510.27;352108;115;1964903;-70
2021/03/04 01:19:28;;;;;;;26.46;10.42;;;;;;;1.16;74.27;99505.47;349826;115;1965007;-71
2021/03/04 01:20:34;;;;;;;24.27;11.17;;;;;;;1.04;74.94;99518.98;317707;115;1961954;-71
2021/03/04 01:21:39;;;;;;;21.97;9.29;;;;;;;1.17;74.47;99510.66;342836;115;1961693;-71
2021/03/04 01:22:46;;;;;;;23.02;10.52;;;;;;;1.19;74.33;99508.69;346172;117;1960994;-71
2021/03/04 01:23:52;;;;;;;25.07;10.56;;;;;;;1.20;74.33;99510.34;345851;115;1963971;-71
2021/03/04 01:24:58;;;;;;;22.71;10.33;;;;;;;1.24;74.00;99497.57;308359;115;2746920;-70
2021/03/04 01:26:04;;;;;;;22.51;10.19;;;;;;;1.22;74.21;99499.57;339619;115;1965750;-71
2021/03/04 01:27:09;;;;;;;24.43;11.01;;;;;;;1.19;74.30;99483.88;347072;115;1963926;-71
2021/03/04 01:28:14;;;;;;;24.33;11.58;;;;;;;1.23;74.30;99502.06;348883;115;1961951;-71
2021/03/04 01:29:20;;;;;;;24.64;11.29;;;;;;;1.21;74.42;99496.05;346689;115;1962015;-70
2021/03/04 01:30:36;;;;;;;27.28;12.19;;;;;;;1.19;74.60;99502.50;348169;115;1962956;-70
2021/03/04 01:31:44;;;;;;;25.29;11.55;;;;;;;1.17;74.67;99481.39;365840;110;1962007;-73
2021/03/04 01:32:49;;;;;;;20.52;9.64;;;;;;;1.22;74.55;99483.61;362289;110;1962028;-72
2021/03/04 01:33:56;;;;;;;24.12;11.41;;;;;;;1.19;74.88;99489.20;366680;110;1961958;-71
2021/03/04 01:35:07;;;;;;;24.88;11.55;;;;;;;1.20;74.77;99480.25;306125;110;2194507;-71
2021/03/04 01:36:13;;;;;;;24.61;10.97;;;;;;;-1.31;74.54;99073.32;366317;108;1964006;-72
2021/03/04 01:37:18;;;;;;;24.12;11.78;;;;;;;1.19;75.04;99479.42;356050;108;1960791;-71
2021/03/04 01:38:24;;;;;;;22.12;11.98;;;;;;;1.20;75.06;99477.59;348409;115;1961962;-71
2021/03/04 01:39:30;;;;;;;26.41;11.41;;;;;;;1.22;74.88;99465.81;332131;116;2263984;-71
2021/03/04 01:40:36;;;;;;;22.67;11.69;;;;;;;1.23;74.97;99478.11;344408;114;1962018;-71
2021/03/04 01:41:42;;;;;;;25.60;12.33;;;;;;;1.27;74.97;99478.64;345691;115;1961969;-71
2021/03/04 01:42:47;;;;;;;23.03;11.52;;;;;;;1.30;74.86;99479.20;344947;116;1963277;-71
2021/03/04 01:43:52;;;;;;;27.89;13.43;;;;;;;1.33;74.71;99463.92;346247;116;1962030;-72
2021/03/04 01:44:58;;;;;;;25.89;11.66;;;;;;;1.29;74.69;99461.53;346083;116;1962944;-73
2021/03/04 01:46:05;;;;;;;23.23;10.68;;;;;;;1.25;74.99;99462.02;311548;116;2583994;-72
2021/03/04 01:47:13;;;;;;;27.56;12.62;;;;;;;1.29;74.92;99468.69;342856;108;1963944;-71
2021/03/04 01:48:19;;;;;;;30.19;12.15;;;;;;;1.29;74.85;99466.03;311711;116;2465001;-72
2021/03/04 01:49:25;;;;;;;27.95;11.69;;;;;;;1.25;75.12;99464.67;336468;118;1962982;-72
2021/03/04 01:50:31;;;;;;;30.39;12.47;;;;;;;1.26;74.96;99455.69;337300;120;1963024;-72
2021/03/04 01:51:38;;;;;;;22.96;11.11;;;;;;;1.26;75.09;99461.84;337952;118;1963036;-72
2021/03/04 01:52:44;;;;;;;28.45;12.44;;;;;;;1.31;74.70;99462.23;323700;116;1965027;-71
2021/03/04 01:53:50;;;;;;;24.67;11.89;;;;;;;1.34;74.66;99460.26;333407;118;1961952;-72
2021/03/04 01:54:56;;;;;;;29.52;13.65;;;;;;;1.36;74.55;99455.62;336854;119;1962017;-71
2021/03/04 01:56:02;;;;;;;26.66;13.07;;;;;;;1.33;74.83;99455.94;342972;117;1961913;-72
2021/03/04 01:57:11;;;;;;;30.07;12.84;;;;;;;1.34;74.78;99458.42;304267;120;2241085;-73
2021/03/04 01:58:16;;;;;;;26.71;13.13;;;;;;;1.31;75.04;99454.24;329754;121;1962939;-72
2021/03/04 01:59:22;;;;;;;31.12;13.67;;;;;;;1.36;74.88;99451.13;311013;120;2407911;-71
2021/03/04 02:00:29;;;;;;;30.10;12.14;;;;;;;1.36;74.90;99450.30;342859;118;1963082;-72
2021/03/04 02:01:36;;;;;;;26.24;12.50;;;;;;;1.34;74.78;99453.11;337032;118;1961946;-71
2021/03/04 02:02:42;;;;;;;30.52;12.79;;;;;;;1.34;74.76;99447.78;321336;118;2310246;-70
2021/03/04 02:03:48;;;;;;;30.16;13.62;;;;;;;1.33;74.82;99448.78;331880;120;1961960;-72
2021/03/04 02:04:54;;;;;;;30.00;13.71;;;;;;;1.33;74.79;99439.97;342143;118;1961893;-71
2021/03/04 02:06:01;;;;;;;30.57;12.93;;;;;;;1.37;74.82;99439.49;338186;118;1961958;-72
2021/03/04 02:07:36;;;;;;;26.36;13.62;;;;;;;1.33;74.92;99430.16;323222;117;1962090;-72
2021/03/04 02:08:57;;;;;;;28.88;11.46;;;;;;;1.29;75.11;99424.28;345033;116;1961982;-72
2021/03/04 02:10:39;;;;;;;28.20;13.23;;;;;;;1.34;75.00;99420.34;339719;118;1962953;-71
2021/03/04 02:11:55;;;;;;;30.49;12.48;;;;;;;1.38;74.85;99424.38;283188;118;2246473;-72
2021/03/04 02:13:13;;;;;;;30.10;12.88;;;;;;;1.39;74.80;99423.38;317141;116;1963932;-72
2021/03/04 02:14:25;;;;;;;26.87;13.76;;;;;;;1.39;74.76;99428.70;338199;116;1962963;-72
2021/03/04 02:15:34;;;;;;;29.69;15.01;;;;;;;1.39;74.66;99421.55;343538;117;1962021;-72
2021/03/04 02:16:54;;;;;;;30.97;14.04;;;;;;;1.39;75.07;99416.23;343286;118;1961980;-72
2021/03/04 02:18:03;;;;;;;25.61;12.07;;;;;;;1.45;74.84;99422.77;349494;113;1962978;-72
2021/03/04 02:19:12;;;;;;;28.03;13.87;;;;;;;1.48;74.67;99417.98;320545;112;2010080;-72
2021/03/04 02:20:38;;;;;;;28.77;14.51;;;;;;;1.45;74.95;99418.27;355411;111;1960798;-72
2021/03/04 02:22:06;;;;;;;28.98;13.24;;;;;;;1.50;74.85;99415.16;303677;113;2113905;-71
2021/03/04 02:23:34;;;;;;;33.14;15.04;;;;;;;1.52;74.95;99413.18;351725;113;1963999;-71
2021/03/04 02:25:10;;;;;;;28.36;13.17;;;;;;;1.59;74.52;99410.72;350596;114;1962029;-73
2021/03/04 02:26:39;;;;;;;31.32;15.44;;;;;;;1.61;74.54;99408.75;358224;112;1961942;-72
2021/03/04 02:27:49;;;;;;;32.11;14.03;;;;;;;1.60;74.60;99399.09;361744;112;1961900;-72
2021/03/04 02:28:57;;;;;;;34.38;14.53;;;;;;;1.63;74.57;99404.94;352874;109;1959690;-72
2021/03/04 02:30:06;;;;;;;34.29;14.55;;;;;;;1.58;74.88;99398.41;351426;115;1961963;-71
2021/03/04 02:31:13;;;;;;;30.16;15.17;;;;;;;1.64;74.62;99392.45;324463;111;1962899;-73
2021/03/04 02:32:25;;;;;;;32.71;14.29;;;;;;;1.61;74.70;99393.61;358740;111;1962046;-72
2021/03/04 02:33:32;;;;;;;32.23;14.27;;;;;;;1.64;74.60;99384.47;314112;114;2225960;-71
2021/03/04 02:34:49;;;;;;;34.11;14.84;;;;;;;1.64;74.68;99406.63;362868;112;1961990;-71
2021/03/04 02:35:55;;;;;;;29.95;14.71;;;;;;;1.64;74.62;99400.45;361622;111;1961974;-71
2021/03/04 02:37:02;;;;;;;30.66;15.14;;;;;;;1.62;74.72;99381.16;341955;113;1964002;-71
2021/03/04 02:38:14;;;;;;;27.83;13.63;;;;;;;1.53;75.11;99375.77;359919;111;1961971;-71
2021/03/04 02:39:21;;;;;;;34.66;15.74;;;;;;;1.57;75.15;99368.30;321979;109;2662981;-71
2021/03/04 02:40:30;;;;;;;35.71;16.29;;;;;;;1.57;75.23;99368.30;360607;107;1963970;-71
2021/03/04 02:41:38;;;;;;;37.13;15.67;;;;;;;1.60;75.14;99365.32;332897;112;1961923;-71
2021/03/04 02:42:45;;;;;;;34.33;14.92;;;;;;;1.62;75.06;99371.33;362642;109;1961997;-71
2021/03/04 02:43:51;;;;;;;28.34;15.26;;;;;;;1.59;75.31;99376.11;356385;112;1962935;-70
2021/03/04 02:44:58;;;;;;;30.84;14.41;;;;;;;1.61;75.25;99366.15;358876;112;1962005;-71
2021/03/04 02:46:06;;;;;;;35.34;15.41;;;;;;;1.62;75.32;99363.34;313321;112;2760919;-71
2021/03/04 02:47:16;;;;;;;31.89;13.31;;;;;;;1.65;75.25;99365.69;355390;114;1964963;-71
2021/03/04 02:48:23;;;;;;;34.42;16.17;;;;;;;1.62;75.24;99365.17;355960;112;1961973;-71
2021/03/04 02:49:29;;;;;;;39.95;15.67;;;;;;;1.54;75.88;99369.45;339738;112;1961905;-71
2021/03/04 02:50:38;;;;;;;33.58;14.49;;;;;;;1.60;75.65;99364.49;355788;112;1963077;-71
2021/03/04 02:51:53;;;;;;;33.94;14.97;;;;;;;1.57;75.59;99364.80;356092;112;1961930;-71
2021/03/04 02:52:59;;;;;;;36.49;16.24;;;;;;;1.58;75.58;99358.48;351915;111;1961982;-71
2021/03/04 02:54:06;;;;;;;32.40;15.39;;;;;;;1.63;75.28;99356.19;353373;113;1964990;-71
2021/03/04 02:55:13;;;;;;;35.40;14.72;;;;;;;1.62;75.38;99354.53;354221;113;1961973;-72
2021/03/04 02:56:20;;;;;;;28.80;14.03;;;;;;;1.64;75.42;99349.86;348723;115;1961966;-71
2021/03/04 02:57:28;;;;;;;30.83;15.52;;;;;;;1.65;75.50;99341.73;347138;115;1961934;-71
2021/03/04 02:58:35;;;;;;;29.99;13.60;;;;;;;1.66;75.51;99346.05;353838;113;1963015;-71
2021/03/04 02:59:43;;;;;;;36.82;16.79;;;;;;;1.70;75.23;99342.09;356381;113;1964983;-71
2021/03/04 03:00:51;;;;;;;35.43;16.00;;;;;;;1.66;75.37;99334.57;354329;113;1963024;-71
2021/03/04 03:01:58;;;;;;;28.26;14.19;;;;;;;1.58;75.82;99319.38;324833;113;2472921;-72
2021/03/04 03:03:10;;;;;;;39.24;16.88;;;;;;;1.62;75.68;99328.73;347806;115;1962978;-71
2021/03/04 03:04:17;;;;;;;;;;;;;;;1.62;75.79;99323.41;304850;114;2852797;-71
2021/03/04 03:05:25;;;;;;;31.87;15.32;;;;;;;1.69;75.52;99323.60;349766;114;1959898;-72
2021/03/04 03:06:33;;;;;;;35.22;16.12;;;;;;;1.69;75.41;99319.14;317213;116;2360800;-71
2021/03/04 03:07:41;;;;;;;32.23;13.76;;;;;;;1.67;75.62;99326.44;349182;112;1960789;-71
2021/03/04 03:08:47;;;;;;;32.26;14.77;;;;;;;1.76;75.41;99314.83;348104;114;1960760;-71
2021/03/04 03:09:53;;;;;;;35.18;15.88;;;;;;;1.79;75.22;99320.84;348765;115;1960750;-71
2021/03/04 03:11:01;;;;;;;31.57;15.44;;;;;;;1.76;75.43;99320.16;312804;113;2887816;-71
2021/03/04 03:12:09;;;;;;;35.19;16.59;;;;;;;1.79;75.40;99316.34;347191;114;1960754;-71
2021/03/04 03:13:15;;;;;;;34.19;15.80;;;;;;;1.77;75.27;99313.00;310702;114;2700768;-71
2021/03/04 03:14:21;;;;;;;35.47;16.53;;;;;;;1.76;75.38;99304.17;349927;112;1960883;-71
2021/03/04 03:15:26;;;;;;;36.82;16.96;;;;;;;1.75;75.61;99304.35;353153;112;1960755;-71
2021/03/04 03:16:33;;;;;;;38.22;18.06;;;;;;;1.74;75.69;99307.98;340979;115;1960743;-71
2021/03/04 03:17:40;;;;;;;38.09;15.57;;;;;;;1.64;76.23;99296.61;303349;116;2693891;-71
2021/03/04 03:18:46;;;;;;;32.56;16.36;;;;;;;1.74;75.94;99310.66;348310;114;1960623;-71
2021/03/04 03:19:51;;;;;;;34.27;15.77;;;;;;;1.73;75.93;99304.50;350172;114;1959672;-71
2021/03/04 03:20:56;;;;;;;37.38;18.46;;;;;;;1.78;75.76;99309.36;349803;114;1960645;-72
2021/03/04 03:22:03;;;;;;;34.67;17.13;;;;;;;1.83;75.55;99298.23;349745;116;1960919;-72
2021/03/04 03:23:08;;;;;;;37.07;16.39;;;;;;;1.79;75.65;99315.52;313097;116;2227854;-72
2021/03/04 03:24:14;;;;;;;39.01;17.13;;;;;;;1.79;75.71;99305.69;335473;114;1960828;-72
2021/03/04 03:25:20;;;;;;;37.22;17.18;;;;;;;1.80;75.60;99299.39;348939;114;1960688;-71
2021/03/04 03:26:26;;;;;;;40.50;16.04;;;;;;;1.77;75.67;99310.33;349643;114;1960797;-72
2021/03/04 03:27:32;;;;;;;35.17;17.11;;;;;;;1.74;75.90;99313.31;311071;114;2704757;-71
2021/03/04 03:28:40;;;;;;;37.57;15.25;;;;;;;1.78;75.85;99306.70;337800;114;1960899;-72
2021/03/04 03:29:45;;;;;;;33.39;15.48;;;;;;;1.82;75.62;99292.05;351104;114;1960809;-71
2021/03/04 03:30:51;;;;;;;35.03;17.42;;;;;;;1.83;75.61;99307.06;347392;115;1960786;-71
2021/03/04 03:31:58;;;;;;;34.81;16.84;;;;;;;1.80;75.69;99295.87;311177;114;2651761;-71
2021/03/04 03:33:10;;;;;;;37.52;17.79;;;;;;;1.84;75.58;99290.08;349651;114;1960771;-71
2021/03/04 03:34:16;;;;;;;34.36;17.54;;;;;;;1.80;75.82;99282.55;317480;113;2616702;-70
2021/03/04 03:35:24;;;;;;;39.94;17.01;;;;;;;1.80;76.00;99291.40;344008;114;1960831;-72
2021/03/04 03:36:31;;;;;;;37.28;18.70;;;;;;;1.76;76.10;99277.55;348660;114;1960704;-72
2021/03/04 03:37:37;;;;;;;30.87;16.55;;;;;;;1.80;75.95;99286.08;304672;115;2068203;-72
2021/03/04 03:38:45;;;;;;;40.76;20.02;;;;;;;1.79;75.99;99284.38;350352;113;1960748;-72
2021/03/04 03:39:51;;;;;;;38.23;20.44;;;;;;;1.78;76.05;99277.41;325349;113;2405799;-71
2021/03/04 03:40:58;;;;;;;39.78;19.02;;;;;;;1.81;75.94;99273.59;348270;115;1960794;-70
2021/03/04 03:42:06;;;;;;;34.97;16.79;;;;;;;1.82;76.02;99280.57;349531;114;1960884;-71
2021/03/04 03:43:13;;;;;;;34.94;19.21;;;;;;;1.85;75.96;99267.76;348672;115;1960781;-69
2021/03/04 03:44:19;;;;;;;38.58;18.59;;;;;;;1.85;75.85;99265.09;346774;114;1960676;-71
2021/03/04 03:45:37;;;;;;;35.85;17.24;;;;;;;1.85;75.77;99256.28;298858;114;2132011;-70
2021/03/04 03:46:45;;;;;;;35.01;18.43;;;;;;;1.89;75.63;99258.47;303010;112;2814785;-70
2021/03/04 03:47:51;;;;;;;37.66;18.31;;;;;;;1.89;75.69;99255.80;349863;112;1960764;-71
2021/03/04 03:49:05;;;;;;;38.56;19.76;;;;;;;1.90;75.60;99249.47;330785;115;2282841;-71
2021/03/04 03:50:12;;;;;;;;;;;;;;;1.88;75.84;99254.16;356119;113;1959751;-71
2021/03/04 03:51:20;;;;;;;40.73;18.73;;;;;;;1.84;75.99;99266.10;351968;115;1959988;-70
2021/03/04 03:52:26;;;;;;;34.76;18.19;;;;;;;1.93;75.63;99256.31;342031;116;1960764;-71
2021/03/04 03:53:33;;;;;;;36.17;17.54;;;;;;;1.81;76.14;99258.44;347660;112;1960820;-71
2021/03/04 03:54:39;;;;;;;39.58;18.44;;;;;;;1.92;75.77;99252.81;308637;114;2013382;-70
2021/03/04 03:55:47;;;;;;;36.78;19.24;;;;;;;2.01;75.45;99248.34;345872;117;1960825;-71
2021/03/04 03:56:56;;;;;;;34.64;16.68;;;;;;;2.02;75.29;99258.03;345756;114;1961918;-71
2021/03/04 03:58:03;;;;;;;39.18;18.51;;;;;;;2.01;75.34;99244.86;314897;115;2529973;-71
2021/03/04 03:59:22;;;;;;;35.57;18.94;;;;;;;2.01;75.25;99250.18;345690;117;1961974;-71
2021/03/04 04:00:28;;;;;;;35.99;18.32;;;;;;;1.98;75.43;99232.69;359486;110;1961958;-71
2021/03/04 04:01:36;;;;;;;40.97;18.86;;;;;;;2.03;75.31;99232.21;360382;112;1961934;-72
2021/03/04 04:02:42;;;;;;;36.58;17.76;;;;;;;2.07;74.99;99229.07;338390;112;2322050;-72
2021/03/04 04:03:48;;;;;;;32.75;17.29;;;;;;;2.06;75.00;99230.05;354495;113;1961976;-72
2021/03/04 04:04:55;;;;;;;37.93;18.60;;;;;;;2.08;75.00;99224.57;353101;114;1961956;-72
2021/03/04 04:06:03;;;;;;;39.34;18.37;;;;;;;1.97;75.19;99218.55;353898;114;1961935;-71
2021/03/04 04:07:12;;;;;;;35.31;18.41;;;;;;;2.04;75.08;99216.08;352180;114;1961948;-71
2021/03/04 04:08:23;;;;;;;39.61;21.42;;;;;;;2.01;75.30;99215.55;352935;114;1962016;-72
2021/03/04 04:09:29;;;;;;;34.63;18.47;;;;;;;1.98;75.44;99211.38;353485;114;1963999;-71
2021/03/04 04:10:37;;;;;;;32.30;16.97;;;;;;;2.01;75.38;99210.22;351027;114;1961994;-71
2021/03/04 04:11:45;;;;;;;33.47;18.13;;;;;;;2.03;75.23;99201.07;305749;114;2852885;-71
2021/03/04 04:12:51;;;;;;;36.72;17.60;;;;;;;1.98;75.33;99198.06;336044;114;1961934;-71
2021/03/04 04:13:57;;;;;;;37.76;19.36;;;;;;;2.05;75.30;99198.27;353796;114;1961956;-72
2021/03/04 04:15:05;;;;;;;34.59;16.76;;;;;;;2.05;75.08;99196.42;352237;114;1961939;-71
2021/03/04 04:16:12;;;;;;;37.64;18.61;;;;;;;2.12;74.88;99197.45;352833;114;1970013;-72
2021/03/04 04:17:21;;;;;;;35.67;18.21;;;;;;;2.12;74.66;99188.62;354912;114;1962888;-71
2021/03/04 04:18:28;;;;;;;41.86;19.18;;;;;;;2.09;74.81;99194.26;354378;114;1962011;-70
2021/03/04 04:19:35;;;;;;;39.12;18.73;;;;;;;2.01;75.08;99180.92;312012;114;2747941;-71
2021/03/04 04:20:41;;;;;;;34.82;18.54;;;;;;;2.06;74.81;99179.43;352531;114;1962059;-71
2021/03/04 04:21:57;;;;;;;38.07;18.91;;;;;;;2.06;74.73;99197.25;354250;114;1963997;-72
2021/03/04 04:23:04;;;;;;;27.07;13.53;;;;;;;1.98;74.82;99184.74;334738;109;2479971;-71
2021/03/04 04:24:11;;;;;;;33.29;16.89;;;;;;;2.05;74.38;99171.63;350569;108;1960797;-71
2021/03/04 04:25:20;;;;;;;35.93;17.22;;;;;;;2.00;74.29;99188.09;357121;107;1960803;-70
2021/03/04 04:26:25;;;;;;;35.38;17.33;;;;;;;1.96;74.32;99179.59;356932;113;1961900;-72
2021/03/04 04:27:31;;;;;;;32.73;15.32;;;;;;;1.94;74.40;99176.25;357223;111;1962016;-72
2021/03/04 04:28:36;;;;;;;31.69;16.52;;;;;;;1.91;74.61;99173.92;356160;111;1961940;-72
2021/03/04 04:29:42;;;;;;;31.83;16.98;;;;;;;1.83;74.81;99165.91;309291;113;2836898;-71
2021/03/04 04:30:49;;;;;;;34.56;16.83;;;;;;;1.83;75.17;99165.08;358292;113;1961970;-72
2021/03/04 04:31:54;;;;;;;32.37;16.72;;;;;;;1.87;75.00;99167.23;363151;111;1961967;-71
2021/03/04 04:32:59;;;;;;;30.88;17.64;;;;;;;1.88;74.84;99168.92;358791;111;1963965;-70
2021/03/04 04:34:05;;;;;;;32.90;16.40;;;;;;;1.85;75.00;99166.56;355445;111;1961971;-71
2021/03/04 04:35:13;;;;;;;34.67;19.09;;;;;;;1.88;74.71;99166.26;320528;111;2607994;-70
2021/03/04 04:36:20;;;;;;;33.93;17.48;;;;;;;1.80;74.74;99176.89;356367;113;1962325;-71
2021/03/04 04:37:26;;;;;;;34.02;17.81;;;;;;;1.78;75.17;99165.56;324745;111;2533008;-72
2021/03/04 04:38:31;;;;;;;32.12;16.94;;;;;;;1.80;74.96;99184.88;334190;111;1962029;-71
2021/03/04 04:39:37;;;;;;;30.15;15.81;;;;;;;1.81;74.91;99170.56;350804;111;1963915;-71
2021/03/04 04:40:43;;;;;;;30.26;16.43;;;;;;;1.81;74.79;99162.57;358062;113;1961909;-72
2021/03/04 04:41:48;;;;;;;33.91;17.64;;;;;;;1.80;74.83;99170.70;358932;111;1961951;-71
2021/03/04 04:42:54;;;;;;;30.53;17.38;;;;;;;1.79;74.92;99167.22;355745;111;1961945;-71
2021/03/04 04:44:00;;;;;;;29.54;16.42;;;;;;;1.79;74.98;99158.41;313895;115;2629033;-71
2021/03/04 04:45:08;;;;;;;31.27;16.88;;;;;;;1.78;74.94;99165.56;332654;113;1961947;-71
2021/03/04 04:46:15;;;;;;;37.42;19.61;;;;;;;1.83;74.81;99154.43;323059;107;2567979;-74
2021/03/04 04:47:20;;;;;;;33.56;17.75;;;;;;;1.74;74.94;99164.20;341988;109;1964025;-74
2021/03/04 04:48:26;;;;;;;32.22;17.54;;;;;;;1.76;75.01;99155.06;358994;111;1961947;-73
2021/03/04 04:49:34;;;;;;;31.69;16.53;;;;;;;1.76;75.11;99167.55;359112;109;1962041;-73
2021/03/04 04:50:40;;;;;;;34.62;17.23;;;;;;;1.79;74.86;99158.41;362411;111;1961938;-74
2021/03/04 04:51:45;;;;;;;34.73;18.23;;;;;;;1.79;74.80;99155.73;364049;110;1961930;-74
2021/03/04 04:52:51;;;;;;;30.41;16.66;;;;;;;1.76;74.87;99156.89;361730;109;1962018;-73
2021/03/04 04:53:56;;;;;;;35.51;18.94;;;;;;;1.77;74.95;99147.89;362498;109;1961875;-73
2021/03/04 04:55:03;;;;;;;32.10;16.19;;;;;;;1.74;75.01;99154.37;363428;111;1961991;-74
2021/03/04 04:56:09;;;;;;;34.53;17.44;;;;;;;1.75;74.89;99155.23;338574;111;1962014;-75
2021/03/04 04:57:16;;;;;;;33.06;17.93;;;;;;;1.76;74.87;99143.58;350981;113;1961940;-74
2021/03/04 04:58:22;;;;;;;30.76;17.58;;;;;;;1.72;74.79;99144.88;362745;109;1962033;-74
2021/03/04 04:59:28;;;;;;;33.44;18.19;;;;;;;1.74;74.82;99146.39;319177;109;2767014;-74
2021/03/04 05:00:35;;;;;;;32.54;18.60;;;;;;;1.72;74.86;99145.74;364163;109;1963991;-72
2021/03/04 05:01:41;;;;;;;32.47;16.48;;;;;;;1.71;74.84;99133.41;359690;111;1961999;-72
2021/03/04 05:02:49;;;;;;;31.76;18.28;;;;;;;1.71;74.66;99141.39;363502;112;1961988;-71
2021/03/04 05:03:55;;;;;;;30.69;16.83;;;;;;;1.65;74.87;99141.22;362704;109;1962011;-72
2021/03/04 05:05:02;;;;;;;35.49;17.81;;;;;;;1.61;74.85;99134.55;360189;110;1963489;-71
2021/03/04 05:06:09;;;;;;;35.77;17.71;;;;;;;1.58;75.13;99141.02;361714;109;1963899;-71
2021/03/04 05:07:14;;;;;;;31.58;18.08;;;;;;;1.58;75.03;99133.03;362518;111;1961898;-70
2021/03/04 05:08:20;;;;;;;32.04;17.47;;;;;;;1.53;75.14;99130.88;360779;112;1962028;-72
2021/03/04 05:09:27;;;;;;;29.99;17.56;;;;;;;1.53;75.14;99117.57;315738;109;2816936;-72